createdAt,value
2019-05-29T00:02:16.822Z,69.36
2019-05-29T00:04:43.197Z,69.71
2019-05-29T00:07:10.138Z,70.14
2019-05-29T00:09:35.825Z,70.24
2019-05-29T00:12:02.233Z,69.87
2019-05-29T00:14:28.524Z,70.16
2019-05-29T00:16:54.823Z,70.17
2019-05-29T00:19:21.155Z,70.47
2019-05-29T00:21:47.464Z,70.75
2019-05-29T00:24:13.864Z,70.64
2019-05-29T00:26:40.175Z,70.86
2019-05-29T00:29:07.506Z,71.11
2019-05-29T00:31:32.822Z,71.55
2019-05-29T00:33:59.131Z,71.90
2019-05-29T00:36:25.472Z,72.09
2019-05-29T00:38:51.768Z,72.03
2019-05-29T00:41:18.099Z,72.10
2019-05-29T00:43:44.410Z,72.25
2019-05-29T00:46:11.366Z,72.39
2019-05-29T00:48:37.062Z,72.40
2019-05-29T00:51:03.390Z,72.93
2019-05-29T00:53:29.715Z,73.09
2019-05-29T00:55:56.028Z,73.58
2019-05-29T00:58:22.361Z,73.70
2019-05-29T01:00:48.669Z,73.95
2019-05-29T01:03:15.852Z,73.87
2019-05-29T01:05:41.298Z,74.00
2019-05-29T01:08:07.602Z,73.73
2019-05-29T01:10:33.944Z,73.74
2019-05-29T01:13:00.267Z,73.92
2019-05-29T01:15:26.568Z,74.26
2019-05-29T01:17:52.897Z,74.65
2019-05-29T01:20:20.017Z,74.89
2019-05-29T01:22:45.552Z,74.86
2019-05-29T01:25:12.409Z,75.21
2019-05-29T01:27:38.217Z,74.93
2019-05-29T01:30:04.529Z,74.49
2019-05-29T01:32:30.837Z,75.14
2019-05-29T01:34:57.167Z,74.93
2019-05-29T01:37:24.362Z,74.89
2019-05-29T01:39:49.814Z,74.57
2019-05-29T01:42:17.240Z,75.02
2019-05-29T01:44:42.433Z,74.83
2019-05-29T01:47:08.763Z,74.87
2019-05-29T01:49:35.193Z,74.87
2019-05-29T01:52:01.377Z,74.66
2019-05-29T01:54:27.990Z,74.78
2019-05-29T01:56:54.021Z,75.34
2019-05-29T01:59:20.340Z,75.31
2019-05-29T02:01:46.651Z,75.75
2019-05-29T02:04:12.982Z,75.37
2019-05-29T02:06:39.300Z,75.59
2019-05-29T02:09:05.630Z,75.35
2019-05-29T02:11:32.363Z,75.64
2019-05-29T02:13:58.263Z,76.12
2019-05-29T02:16:24.917Z,76.17
2019-05-29T02:18:50.919Z,76.11
2019-05-29T02:21:18.015Z,75.91
2019-05-29T02:23:43.543Z,76.35
2019-05-29T02:26:09.859Z,76.41
2019-05-29T02:28:36.188Z,76.49
2019-05-29T02:31:02.523Z,76.50
2019-05-29T02:33:28.832Z,76.44
2019-05-29T02:35:55.169Z,76.62
2019-05-29T02:38:22.979Z,76.70
2019-05-29T02:40:47.806Z,76.85
2019-05-29T02:43:14.112Z,77.16
2019-05-29T02:45:53.917Z,77.28
2019-05-29T02:48:06.765Z,77.84
2019-05-29T02:50:33.054Z,77.69
2019-05-29T02:52:59.397Z,77.84
2019-05-29T02:55:26.900Z,77.98
2019-05-29T02:57:52.049Z,78.20
2019-05-29T03:00:18.345Z,78.46
2019-05-29T03:02:44.668Z,78.89
2019-05-29T03:05:11.006Z,79.16
2019-05-29T03:07:37.344Z,79.67
2019-05-29T03:10:03.664Z,79.74
2019-05-29T03:12:31.338Z,79.87
2019-05-29T03:14:56.313Z,79.56
2019-05-29T03:17:23.660Z,79.91
2019-05-29T03:19:48.933Z,80.04
2019-05-29T03:22:15.237Z,80.03
2019-05-29T03:24:41.564Z,80.67
2019-05-29T03:27:07.868Z,80.66
2019-05-29T03:29:34.420Z,80.64
2019-05-29T03:32:00.507Z,80.38
2019-05-29T03:34:28.478Z,80.43
2019-05-29T03:36:53.157Z,80.84
2019-05-29T03:39:19.475Z,81.33
2019-05-29T03:41:45.801Z,81.66
2019-05-29T03:44:12.140Z,81.84
2019-05-29T03:46:44.589Z,82.20
2019-05-29T03:49:04.752Z,82.02
2019-05-29T03:51:32.557Z,82.08
2019-05-29T03:53:57.411Z,82.67
2019-05-29T03:56:23.742Z,83.10
2019-05-29T03:58:50.078Z,83.33
2019-05-29T04:01:16.516Z,83.62
2019-05-29T04:03:42.719Z,83.52
2019-05-29T04:06:09.045Z,83.77
2019-05-29T04:08:35.823Z,83.55
2019-05-29T04:11:01.685Z,83.77
2019-05-29T04:13:29.478Z,83.78
2019-05-29T04:15:54.313Z,83.67
2019-05-29T04:18:20.824Z,84.25
2019-05-29T04:20:46.959Z,83.71
2019-05-29T04:23:13.319Z,83.60
2019-05-29T04:25:42.646Z,83.56
2019-05-29T04:28:05.937Z,84.10
2019-05-29T04:30:32.269Z,83.76
2019-05-29T04:32:58.575Z,83.84
2019-05-29T04:35:24.904Z,83.78
2019-05-29T04:37:51.218Z,85.31
2019-05-29T04:40:17.549Z,87.77
2019-05-29T04:42:43.849Z,87.02
2019-05-29T04:45:10.219Z,86.25
2019-05-29T04:47:37.335Z,86.39
2019-05-29T04:50:02.823Z,87.55
2019-05-29T04:52:29.236Z,89.24
2019-05-29T04:54:55.535Z,90.58
2019-05-29T04:57:21.828Z,89.37
2019-05-29T04:59:48.201Z,90.71
2019-05-29T05:02:14.505Z,93.96
2019-05-29T05:04:41.007Z,94.52
2019-05-29T05:07:07.343Z,95.14
2019-05-29T05:09:33.659Z,99.68
2019-05-29T05:12:00.233Z,100.00
2019-05-29T05:14:26.537Z,100.00
2019-05-29T05:16:52.861Z,100.00
2019-05-29T05:19:19.177Z,100.00
2019-05-29T05:21:45.505Z,100.00
2019-05-29T05:24:11.815Z,100.00
2019-05-29T05:26:38.416Z,100.00
2019-05-29T05:29:04.456Z,100.00
2019-05-29T05:31:30.774Z,100.00
2019-05-29T05:33:57.108Z,100.00
2019-05-29T05:36:23.408Z,100.00
2019-05-29T05:38:49.800Z,100.00
2019-05-29T05:41:16.107Z,100.00
2019-05-29T05:43:42.443Z,99.45
2019-05-29T05:46:08.767Z,98.54
2019-05-29T05:48:35.178Z,95.98
2019-05-29T05:51:01.455Z,94.17
2019-05-29T05:53:27.760Z,93.16
2019-05-29T05:55:54.091Z,95.68
2019-05-29T05:58:20.405Z,98.40
2019-05-29T06:00:46.746Z,99.72
2019-05-29T06:03:13.054Z,99.98
2019-05-29T06:05:40.192Z,97.67
2019-05-29T06:08:05.679Z,96.04
2019-05-29T06:10:32.119Z,94.78
2019-05-29T06:12:58.352Z,96.06
2019-05-29T06:15:24.788Z,97.05
2019-05-29T06:18:10.117Z,96.13
2019-05-29T06:20:17.329Z,94.66
2019-05-29T06:22:43.761Z,93.11
2019-05-29T06:25:09.997Z,92.40
2019-05-29T06:27:37.091Z,92.60
2019-05-29T06:30:03.611Z,90.24
2019-05-29T06:32:29.441Z,92.04
2019-05-29T06:34:55.896Z,92.58
2019-05-29T06:37:22.217Z,93.29
2019-05-29T06:39:48.528Z,91.39
2019-05-29T06:42:14.872Z,90.35
2019-05-29T06:44:41.981Z,89.16
2019-05-29T06:47:07.563Z,88.43
2019-05-29T06:49:33.955Z,87.99
2019-05-29T06:52:00.203Z,88.37
2019-05-29T06:54:26.513Z,88.87
2019-05-29T06:56:52.838Z,86.23
2019-05-29T06:59:19.164Z,87.69
2019-05-29T07:01:45.495Z,88.21
2019-05-29T07:04:12.662Z,86.35
2019-05-29T07:06:38.564Z,88.47
2019-05-29T07:09:04.639Z,89.54
2019-05-29T07:11:30.927Z,89.64
2019-05-29T07:13:57.313Z,86.76
2019-05-29T07:16:23.643Z,86.27
2019-05-29T07:19:23.825Z,86.36
2019-05-29T07:21:16.286Z,87.87
2019-05-29T07:23:46.129Z,90.80
2019-05-29T07:26:08.955Z,90.37
2019-05-29T07:28:35.259Z,89.43
2019-05-29T07:31:03.731Z,85.85
2019-05-29T07:33:27.922Z,84.33
2019-05-29T07:35:54.283Z,82.23
2019-05-29T07:38:20.630Z,78.32
2019-05-29T07:40:48.106Z,80.38
2019-05-29T07:43:13.274Z,78.14
2019-05-29T07:45:40.584Z,76.53
2019-05-29T07:48:05.942Z,79.10
2019-05-29T07:50:32.274Z,81.82
2019-05-29T07:52:58.634Z,82.09
2019-05-29T07:55:24.959Z,79.36
2019-05-29T07:57:51.263Z,78.24
2019-05-29T08:00:17.602Z,76.91
2019-05-29T08:02:45.103Z,75.87
2019-05-29T08:05:10.311Z,77.38
2019-05-29T08:07:36.680Z,79.97
2019-05-29T08:10:02.988Z,81.44
2019-05-29T08:12:29.326Z,81.78
2019-05-29T08:14:55.650Z,79.30
2019-05-29T08:17:21.974Z,77.04
2019-05-29T08:20:05.381Z,76.09
2019-05-29T08:22:14.604Z,75.71
2019-05-29T08:24:42.460Z,74.59
2019-05-29T08:27:07.251Z,74.85
2019-05-29T08:29:33.569Z,70.29
2019-05-29T08:31:59.877Z,67.69
2019-05-29T08:34:26.203Z,68.23
2019-05-29T08:37:04.776Z,67.66
2019-05-29T08:39:33.882Z,67.01
2019-05-29T08:41:56.159Z,71.00
2019-05-29T08:44:11.515Z,71.87
2019-05-29T08:46:37.863Z,70.76
2019-05-29T08:49:04.183Z,72.37
2019-05-29T08:51:30.484Z,74.01
2019-05-29T08:53:56.826Z,73.48
2019-05-29T08:56:23.191Z,70.87
2019-05-29T08:58:50.618Z,67.92
2019-05-29T09:01:15.874Z,67.34
2019-05-29T09:03:42.837Z,65.62
2019-05-29T09:06:10.383Z,67.61
2019-05-29T09:08:34.972Z,66.78
2019-05-29T09:11:01.304Z,67.19
2019-05-29T09:13:27.617Z,66.70
2019-05-29T09:15:53.951Z,66.87
2019-05-29T09:18:21.523Z,65.42
2019-05-29T09:21:01.858Z,65.44
2019-05-29T09:23:12.886Z,64.72
2019-05-29T09:25:39.223Z,63.76
2019-05-29T09:28:05.548Z,62.59
2019-05-29T09:30:31.901Z,61.04
2019-05-29T09:32:58.253Z,60.31
2019-05-29T09:35:25.082Z,61.01
2019-05-29T09:37:50.880Z,59.65
2019-05-29T09:40:17.209Z,60.14
2019-05-29T09:42:43.518Z,59.71
2019-05-29T09:45:09.944Z,59.84
2019-05-29T09:47:36.209Z,59.09
2019-05-29T09:50:02.546Z,56.63
2019-05-29T09:52:30.854Z,54.83
2019-05-29T09:54:56.073Z,56.16
2019-05-29T09:57:21.511Z,56.73
2019-05-29T09:59:47.829Z,54.56
2019-05-29T10:02:14.169Z,53.97
2019-05-29T10:04:40.470Z,54.31
2019-05-29T10:07:06.862Z,54.90
2019-05-29T10:09:33.181Z,56.20
2019-05-29T10:12:03.449Z,57.33
2019-05-29T10:14:25.831Z,58.09
2019-05-29T10:16:52.138Z,57.85
2019-05-29T10:19:18.572Z,57.66
2019-05-29T10:21:47.344Z,55.29
2019-05-29T10:24:11.326Z,55.81
2019-05-29T10:26:37.642Z,54.08
2019-05-29T10:29:08.634Z,54.86
2019-05-29T10:31:30.279Z,54.70
2019-05-29T10:33:56.587Z,54.28
2019-05-29T10:36:23.098Z,55.33
2019-05-29T10:38:50.608Z,56.15
2019-05-29T10:41:15.669Z,55.88
2019-05-29T10:43:42.929Z,55.19
2019-05-29T10:46:08.303Z,55.33
2019-05-29T10:48:34.700Z,55.73
2019-05-29T10:51:00.960Z,55.41
2019-05-29T10:53:27.334Z,55.54
2019-05-29T10:55:54.925Z,54.66
2019-05-29T10:58:19.956Z,53.65
2019-05-29T11:00:47.081Z,54.55
2019-05-29T11:03:12.618Z,54.54
2019-05-29T11:05:38.952Z,55.04
2019-05-29T11:08:05.287Z,55.12
2019-05-29T11:10:31.610Z,55.12
2019-05-29T11:12:57.915Z,55.27
2019-05-29T11:15:24.263Z,54.71
2019-05-29T11:17:51.379Z,54.39
2019-05-29T11:20:16.905Z,54.36
2019-05-29T11:22:43.239Z,54.34
2019-05-29T11:25:22.501Z,54.44
2019-05-29T11:27:35.894Z,54.10
2019-05-29T11:30:02.206Z,54.02
2019-05-29T11:32:28.548Z,53.73
2019-05-29T11:34:55.549Z,54.64
2019-05-29T11:37:21.215Z,54.42
2019-05-29T11:39:47.545Z,52.97
2019-05-29T11:42:27.025Z,53.17
2019-05-29T11:44:40.204Z,53.08
2019-05-29T11:47:06.617Z,53.43
2019-05-29T11:49:32.924Z,53.78
2019-05-29T11:52:21.689Z,53.77
2019-05-29T11:54:25.581Z,54.13
2019-05-29T11:56:53.602Z,54.19
2019-05-29T11:59:18.283Z,53.79
2019-05-29T12:01:50.050Z,53.08
2019-05-29T12:04:24.858Z,53.26
2019-05-29T12:06:37.314Z,54.11
2019-05-29T12:09:03.588Z,52.45
2019-05-29T12:11:29.996Z,52.29
2019-05-29T12:13:57.910Z,51.58
2019-05-29T12:16:22.649Z,51.78
2019-05-29T12:18:48.975Z,51.82
2019-05-29T12:21:15.293Z,52.38
2019-05-29T12:23:41.625Z,51.39
2019-05-29T12:26:21.815Z,51.53
2019-05-29T12:28:34.285Z,51.75
2019-05-29T12:31:01.577Z,51.51
2019-05-29T12:33:26.975Z,52.25
2019-05-29T12:35:53.298Z,52.94
2019-05-29T12:38:19.616Z,52.49
2019-05-29T12:40:45.946Z,52.62
2019-05-29T12:43:25.923Z,52.69
2019-05-29T12:45:38.561Z,52.91
2019-05-29T12:48:11.667Z,52.74
2019-05-29T12:50:34.384Z,51.99
2019-05-29T12:52:57.773Z,50.49
2019-05-29T12:55:23.896Z,49.62
2019-05-29T12:57:50.205Z,49.51
2019-05-29T13:00:16.543Z,48.21
2019-05-29T13:02:42.872Z,48.76
2019-05-29T13:05:18.017Z,49.31
2019-05-29T13:07:35.502Z,49.31
2019-05-29T13:10:02.804Z,49.53
2019-05-29T13:12:28.145Z,48.57
2019-05-29T13:14:54.522Z,47.67
2019-05-29T13:17:20.789Z,48.31
2019-05-29T13:19:47.089Z,48.30
2019-05-29T13:22:13.419Z,48.83
2019-05-29T13:24:39.828Z,49.12
2019-05-29T13:27:06.349Z,48.69
2019-05-29T13:29:32.504Z,48.25
2019-05-29T13:32:00.130Z,48.04
2019-05-29T13:34:25.160Z,47.92
2019-05-29T13:36:51.627Z,48.28
2019-05-29T13:39:17.962Z,47.95
2019-05-29T13:41:44.167Z,47.56
2019-05-29T13:44:10.497Z,48.25
2019-05-29T13:46:36.814Z,48.06
2019-05-29T13:49:03.160Z,48.73
2019-05-29T13:51:29.460Z,48.67
2019-05-29T13:54:03.572Z,48.06
2019-05-29T13:56:24.358Z,48.47
2019-05-29T13:58:48.413Z,49.37
2019-05-29T14:01:14.737Z,49.32
2019-05-29T14:03:41.060Z,49.37
2019-05-29T14:06:07.944Z,49.67
2019-05-29T14:08:33.687Z,48.82
2019-05-29T14:11:00.886Z,48.76
2019-05-29T14:13:26.320Z,48.87
2019-05-29T14:15:52.650Z,48.57
2019-05-29T14:18:18.959Z,48.74
2019-05-29T14:20:45.293Z,48.68
2019-05-29T14:23:11.847Z,48.85
2019-05-29T14:25:37.932Z,47.85
2019-05-29T14:28:04.562Z,47.72
2019-05-29T14:30:30.572Z,46.99
2019-05-29T14:32:56.897Z,47.25
2019-05-29T14:35:23.198Z,47.48
2019-05-29T14:37:49.534Z,47.62
2019-05-29T14:40:15.950Z,47.61
2019-05-29T14:42:42.269Z,47.70
2019-05-29T14:45:08.626Z,47.74
2019-05-29T14:47:34.903Z,47.69
2019-05-29T14:50:02.526Z,48.28
2019-05-29T14:52:27.558Z,48.18
2019-05-29T14:54:53.865Z,47.38
2019-05-29T14:57:25.864Z,47.78
2019-05-29T14:59:46.515Z,47.49
2019-05-29T15:02:22.955Z,47.33
2019-05-29T15:04:39.188Z,47.41
2019-05-29T15:07:05.778Z,47.54
2019-05-29T15:09:31.841Z,47.67
2019-05-29T15:11:58.773Z,47.29
2019-05-29T15:14:25.095Z,47.19
2019-05-29T15:16:51.424Z,48.17
2019-05-29T15:19:17.758Z,48.57
2019-05-29T15:21:44.040Z,49.78
2019-05-29T15:24:11.516Z,50.37
2019-05-29T15:26:36.683Z,50.37
2019-05-29T15:29:04.150Z,50.84
2019-05-29T15:31:30.480Z,51.38
2019-05-29T15:33:56.799Z,51.82
2019-05-29T15:36:23.124Z,51.98
2019-05-29T15:38:49.436Z,52.04
2019-05-29T15:41:16.818Z,52.72
2019-05-29T15:43:42.077Z,52.37
2019-05-29T15:46:10.167Z,52.46
2019-05-29T15:48:34.747Z,51.94
2019-05-29T15:51:01.058Z,51.72
2019-05-29T15:53:27.409Z,51.41
2019-05-29T15:55:53.710Z,51.41
2019-05-29T15:58:20.063Z,51.15
2019-05-29T16:00:46.358Z,51.26
2019-05-29T16:03:13.611Z,51.26
2019-05-29T16:05:39.019Z,51.06
2019-05-29T16:08:05.355Z,50.98
2019-05-29T16:10:31.717Z,50.96
2019-05-29T16:12:57.985Z,51.08
2019-05-29T16:15:24.316Z,50.85
2019-05-29T16:17:50.625Z,50.54
2019-05-29T16:20:16.954Z,50.41
2019-05-29T16:22:43.273Z,50.46
2019-05-29T16:25:10.737Z,50.47
2019-05-29T16:27:35.897Z,50.26
2019-05-29T16:30:02.206Z,50.25
2019-05-29T16:32:28.565Z,50.15
2019-05-29T16:34:54.867Z,50.12
2019-05-29T16:37:21.931Z,51.24
2019-05-29T16:39:47.531Z,51.89
2019-05-29T16:42:14.012Z,51.22
2019-05-29T16:44:40.185Z,51.19
2019-05-29T16:47:06.502Z,50.78
2019-05-29T16:49:32.813Z,51.05
2019-05-29T16:51:59.141Z,51.56
2019-05-29T16:54:25.478Z,52.31
2019-05-29T16:56:51.789Z,51.71
2019-05-29T16:59:19.127Z,51.75
2019-05-29T17:01:44.425Z,52.07
2019-05-29T17:04:10.789Z,51.97
2019-05-29T17:06:37.122Z,51.46
2019-05-29T17:09:03.458Z,51.75
2019-05-29T17:11:29.754Z,52.13
2019-05-29T17:13:56.080Z,51.88
2019-05-29T17:16:22.675Z,51.98
2019-05-29T17:18:49.000Z,52.45
2019-05-29T17:21:16.428Z,52.88
2019-05-29T17:23:41.664Z,53.03
2019-05-29T17:26:11.003Z,53.02
2019-05-29T17:28:34.404Z,53.15
2019-05-29T17:31:02.363Z,55.03
2019-05-29T17:33:27.044Z,55.19
2019-05-29T17:35:53.354Z,55.09
2019-05-29T17:38:21.105Z,54.42
2019-05-29T17:40:46.068Z,54.28
2019-05-29T17:43:12.532Z,54.23
2019-05-29T17:45:38.827Z,53.68
2019-05-29T17:48:05.135Z,53.67
2019-05-29T17:50:31.558Z,54.08
2019-05-29T17:52:57.903Z,54.28
2019-05-29T17:55:24.943Z,54.56
2019-05-29T17:57:50.728Z,54.37
2019-05-29T18:00:17.997Z,54.56
2019-05-29T18:02:51.841Z,54.54
2019-05-29T18:05:09.785Z,54.80
2019-05-29T18:07:36.103Z,55.08
2019-05-29T18:10:02.427Z,55.19
2019-05-29T18:12:28.762Z,55.42
2019-05-29T18:14:55.092Z,55.42
2019-05-29T18:17:21.458Z,56.78
2019-05-29T18:19:47.730Z,57.52
2019-05-29T18:22:14.044Z,57.09
2019-05-29T18:24:40.370Z,56.82
2019-05-29T18:27:06.710Z,56.78
2019-05-29T18:29:33.069Z,56.86
2019-05-29T18:31:59.406Z,56.66
2019-05-29T18:34:27.015Z,56.61
2019-05-29T18:36:52.050Z,56.36
2019-05-29T18:39:18.375Z,56.35
2019-05-29T18:41:44.709Z,57.03
2019-05-29T18:44:11.035Z,56.95
2019-05-29T18:46:38.180Z,57.30
2019-05-29T18:49:03.769Z,57.67
2019-05-29T18:51:30.106Z,58.13
2019-05-29T18:53:56.395Z,58.18
2019-05-29T18:56:23.873Z,58.47
2019-05-29T18:58:49.043Z,58.84
2019-05-29T19:01:15.362Z,59.56
2019-05-29T19:03:41.695Z,59.77
2019-05-29T19:06:08.021Z,59.88
2019-05-29T19:08:34.334Z,60.50
2019-05-29T19:11:00.667Z,60.47
2019-05-29T19:13:27.940Z,60.26
2019-05-29T19:15:53.272Z,60.63
2019-05-29T19:18:19.613Z,60.55
2019-05-29T19:20:45.925Z,61.12
2019-05-29T19:23:12.748Z,61.29
2019-05-29T19:25:39.071Z,61.68
2019-05-29T19:28:05.504Z,61.66
2019-05-29T19:30:32.953Z,61.60
2019-05-29T19:32:58.156Z,60.89
2019-05-29T19:35:25.422Z,61.41
2019-05-29T19:37:50.806Z,62.74
2019-05-29T19:40:17.144Z,63.17
2019-05-29T19:42:43.451Z,62.76
2019-05-29T19:45:09.784Z,62.97
2019-05-29T19:47:36.082Z,62.32
2019-05-29T19:50:02.402Z,61.88
2019-05-29T19:52:29.066Z,61.18
2019-05-29T19:54:55.030Z,61.42
2019-05-29T19:57:21.362Z,61.92
2019-05-29T19:59:47.670Z,61.92
2019-05-29T20:02:13.995Z,62.05
2019-05-29T20:04:40.338Z,62.30
2019-05-29T20:07:06.660Z,62.48
2019-05-29T20:09:33.349Z,62.16
2019-05-29T20:11:59.307Z,62.27
2019-05-29T20:14:25.655Z,62.10
2019-05-29T20:16:51.966Z,62.15
2019-05-29T20:19:18.268Z,61.90
2019-05-29T20:21:44.575Z,61.74
2019-05-29T20:24:10.892Z,61.50
2019-05-29T20:26:37.362Z,61.21
2019-05-29T20:29:03.604Z,60.92
2019-05-29T20:31:30.437Z,60.44
2019-05-29T20:33:56.291Z,60.14
2019-05-29T20:36:22.608Z,59.53
2019-05-29T20:38:48.929Z,59.30
2019-05-29T20:41:15.255Z,59.09
2019-05-29T20:43:41.921Z,59.36
2019-05-29T20:46:07.912Z,59.36
2019-05-29T20:48:34.597Z,59.34
2019-05-29T20:51:00.541Z,59.28
2019-05-29T20:53:26.860Z,59.14
2019-05-29T20:55:53.191Z,59.44
2019-05-29T20:58:24.623Z,59.49
2019-05-29T21:00:45.820Z,59.50
2019-05-29T21:03:12.151Z,59.55
2019-05-29T21:05:38.711Z,59.64
2019-05-29T21:08:04.787Z,59.56
2019-05-29T21:10:31.095Z,59.60
2019-05-29T21:12:57.420Z,59.54
2019-05-29T21:15:23.736Z,59.85
2019-05-29T21:17:50.074Z,59.85
2019-05-29T21:20:16.406Z,59.90
2019-05-29T21:22:43.008Z,59.91
2019-05-29T21:25:13.511Z,60.05
2019-05-29T21:27:35.400Z,59.93
2019-05-29T21:30:01.745Z,59.83
2019-05-29T21:32:28.057Z,59.90
2019-05-29T21:34:54.397Z,60.07
2019-05-29T21:37:20.680Z,60.00
2019-05-29T21:39:47.013Z,60.13
2019-05-29T21:42:13.387Z,60.00
2019-05-29T21:44:40.675Z,60.00
2019-05-29T21:47:06.046Z,60.09
2019-05-29T21:49:32.363Z,59.83
2019-05-29T21:51:58.669Z,59.74
2019-05-29T21:54:25.002Z,60.00
2019-05-29T21:56:51.323Z,59.82
2019-05-29T21:59:17.653Z,60.02
2019-05-29T22:01:44.225Z,59.87
2019-05-29T22:04:10.302Z,60.07
2019-05-29T22:06:36.627Z,60.31
2019-05-29T22:09:02.931Z,60.38
2019-05-29T22:11:29.272Z,60.45
2019-05-29T22:13:56.546Z,60.38
2019-05-29T22:16:21.906Z,60.51
2019-05-29T22:18:48.205Z,60.57
2019-05-29T22:21:14.518Z,60.68
2019-05-29T22:23:40.849Z,60.86
2019-05-29T22:26:07.157Z,60.59
2019-05-29T22:28:33.483Z,60.34
2019-05-29T22:30:59.820Z,60.44
2019-05-29T22:33:26.121Z,60.74
2019-05-29T22:35:54.031Z,60.58
2019-05-29T22:38:18.756Z,60.71
2019-05-29T22:40:45.066Z,60.85
2019-05-29T22:43:11.406Z,60.84
2019-05-29T22:45:37.713Z,60.80
2019-05-29T22:48:04.042Z,60.76
2019-05-29T22:50:30.396Z,60.99
2019-05-29T22:52:57.786Z,61.15
2019-05-29T22:55:23.036Z,61.08
2019-05-29T22:57:49.475Z,61.14
2019-05-29T23:00:15.798Z,61.04
2019-05-29T23:02:42.099Z,61.19
2019-05-29T23:05:08.426Z,61.35
2019-05-29T23:07:34.729Z,61.50
2019-05-29T23:10:01.051Z,61.30
2019-05-29T23:12:27.394Z,61.28
2019-05-29T23:14:54.427Z,61.14
2019-05-29T23:17:20.024Z,61.05
2019-05-29T23:19:46.356Z,61.08
2019-05-29T23:22:12.660Z,61.22
2019-05-29T23:24:39.000Z,62.81
2019-05-29T23:27:05.339Z,66.54
2019-05-29T23:29:47.694Z,66.22
2019-05-29T23:31:58.923Z,64.67
2019-05-29T23:34:24.308Z,62.93
2019-05-29T23:36:50.654Z,61.70
2019-05-29T23:39:16.947Z,61.12
2019-05-29T23:41:43.281Z,60.48
2019-05-29T23:44:09.610Z,60.08
2019-05-29T23:46:35.934Z,60.20
2019-05-29T23:49:02.251Z,60.69
2019-05-29T23:51:28.573Z,61.04
2019-05-29T23:53:55.630Z,60.98
2019-05-29T23:56:21.201Z,61.10
2019-05-29T23:58:47.522Z,61.26
